LiveATC.Net - Listen to live air traffic control over the Internet!


ICAO: CYQR  IATA: YQR   Airport: Regina International Airport
City: Regina   State/Province: Saskatchewan
Country: Canada   Continent: North America
CYQR METAR Weather: CYQR 210400Z 32006KT 15SM OVC043 M19/M22 A2982 RMK SC8 SLP158
CYQR Flight Activity (FlightAware)

CYQR Tower
Feed Status: DOWN
Last heard on: 2019-02-20 12:00:05 (0 days 16 hours 46 minutes ago)
CYQR Tower Audio Archives
FacilityFrequency
Regina Tower118.600

NOTICE

Unauthorized use prohibited. See LiveATC.net Terms of Service


Find LiveATC Audio Streams


Airport/ARTCC Code

Frequency Search
(e.g., 124.400, 128.75)
Site-wide search
 


Browse LiveATC Feeds
Top 50 LiveATC Feeds
LiveATC Feed Map
Bad Weather Areas

LiveATC FAQ
Offer LiveATC feed
Contact LiveATC.net
Press Inquiries

LiveATC on iPhone
LiveATC on Android

Windows Phone
Windows 8/10

LiveATC Mobile
(Mobile browser)

ATC Audio Archives
Interesting Recordings

LiveATC Forums


Home Page
About LiveATC.net
Make a Donation
Terms of Use
Privacy Policy

Canadian Air Freqs

AIRMETs/SIGMETs

FAA Airport Status
Nat'l Airspace Status
Arrival Demand Charts


Server Software By:
Icecast.org
Liquidsoap